createdAt,value
2022-10-07T00:00:56.064Z,4.77
2022-10-07T00:03:26.504Z,4.37
2022-10-07T00:06:05.149Z,4.33
2022-10-07T00:08:33.172Z,4.20
2022-10-07T00:11:08.022Z,5.13
2022-10-07T00:13:36.526Z,4.87
2022-10-07T00:16:08.147Z,5.10
2022-10-07T00:18:36.477Z,6.23
2022-10-07T00:21:12.586Z,5.60
2022-10-07T00:23:41.997Z,6.63
2022-10-07T00:26:10.829Z,5.83
2022-10-07T00:28:37.545Z,4.63
2022-10-07T00:31:07.720Z,4.90
2022-10-07T00:33:37.455Z,5.00
2022-10-07T00:36:17.282Z,4.67
2022-10-07T00:38:44.073Z,4.57
2022-10-07T00:41:18.946Z,4.23
2022-10-07T00:43:45.742Z,4.37
2022-10-07T00:46:23.061Z,4.03
2022-10-07T00:48:50.188Z,4.87
2022-10-07T00:51:17.564Z,4.73
2022-10-07T00:53:49.048Z,4.33
2022-10-07T00:56:17.869Z,4.53
2022-10-07T00:58:46.851Z,4.17
2022-10-07T01:01:13.539Z,4.43
2022-10-07T01:03:40.270Z,4.40
2022-10-07T01:06:06.959Z,4.93
2022-10-07T01:08:33.983Z,4.33
2022-10-07T01:11:39.143Z,4.20
2022-10-07T01:14:47.984Z,4.30
2022-10-07T01:17:28.856Z,3.80
2022-10-07T01:20:18.369Z,3.73
2022-10-07T01:23:20.281Z,4.27
2022-10-07T01:26:14.581Z,4.10
2022-10-07T01:28:47.760Z,4.10
2022-10-07T01:31:19.035Z,3.67
2022-10-07T01:33:46.270Z,4.10
2022-10-07T01:36:20.595Z,3.70
2022-10-07T01:39:02.293Z,3.50
2022-10-07T01:41:30.253Z,4.00
2022-10-07T01:43:59.193Z,4.60
2022-10-07T01:46:27.705Z,4.33
2022-10-07T01:48:55.378Z,3.87
2022-10-07T01:51:25.272Z,4.47
2022-10-07T01:54:50.180Z,4.67
2022-10-07T01:57:40.481Z,4.30
2022-10-07T02:00:10.181Z,4.13
2022-10-07T02:02:54.990Z,4.70
2022-10-07T02:05:42.443Z,3.97
2022-10-07T02:08:20.799Z,4.37
2022-10-07T02:11:03.771Z,4.67
2022-10-07T02:13:59.212Z,4.37
2022-10-07T02:16:33.273Z,4.47
2022-10-07T02:19:04.398Z,4.10
2022-10-07T02:21:35.764Z,4.50
2022-10-07T02:24:03.685Z,4.30
2022-10-07T02:26:32.986Z,4.10
2022-10-07T02:29:03.471Z,4.20
2022-10-07T02:31:33.343Z,4.07
2022-10-07T02:34:01.999Z,4.10
2022-10-07T02:36:34.732Z,4.47
2022-10-07T02:39:02.058Z,4.37
2022-10-07T02:41:55.998Z,4.43
2022-10-07T02:44:37.123Z,4.00
2022-10-07T02:47:29.414Z,4.20
2022-10-07T02:50:00.173Z,4.63
2022-10-07T02:52:31.162Z,4.27
2022-10-07T02:55:04.334Z,4.30
2022-10-07T02:57:34.931Z,4.73
2022-10-07T03:00:04.278Z,4.03
2022-10-07T03:02:44.975Z,3.50
2022-10-07T03:05:13.134Z,4.23
2022-10-07T03:07:41.289Z,4.20
2022-10-07T03:10:09.300Z,3.97
2022-10-07T03:12:35.865Z,4.00
2022-10-07T03:15:02.889Z,4.10
2022-10-07T03:17:29.454Z,4.33
2022-10-07T03:19:55.993Z,4.77
2022-10-07T03:22:22.540Z,4.20
2022-10-07T03:24:49.088Z,4.50
2022-10-07T03:27:15.705Z,4.00
2022-10-07T03:29:42.347Z,4.10
2022-10-07T03:32:08.901Z,4.90
2022-10-07T03:34:35.476Z,4.80
2022-10-07T03:37:02.032Z,4.53
2022-10-07T03:39:28.642Z,4.30
2022-10-07T03:41:56.987Z,4.37
2022-10-07T03:44:23.618Z,4.73
2022-10-07T03:46:51.686Z,4.23
2022-10-07T03:49:20.140Z,4.57
2022-10-07T03:51:47.602Z,4.17
2022-10-07T03:54:14.335Z,5.07
2022-10-07T03:56:40.856Z,4.33
2022-10-07T03:59:07.432Z,4.77
2022-10-07T04:01:34.049Z,4.73
2022-10-07T04:04:00.849Z,4.17
2022-10-07T04:06:27.484Z,5.27
2022-10-07T04:08:55.342Z,4.73
2022-10-07T04:11:23.050Z,4.50
2022-10-07T04:13:50.139Z,4.80
2022-10-07T04:16:17.215Z,4.47
2022-10-07T04:18:44.310Z,4.30
2022-10-07T04:21:11.625Z,4.37
2022-10-07T04:23:40.574Z,5.10
2022-10-07T04:26:11.588Z,4.27
2022-10-07T04:28:39.112Z,4.27
2022-10-07T04:31:08.623Z,4.00
2022-10-07T04:33:38.744Z,4.47
2022-10-07T04:36:06.963Z,4.13
2022-10-07T04:38:33.681Z,4.57
2022-10-07T04:41:06.815Z,4.50
2022-10-07T04:43:34.535Z,4.20
2022-10-07T04:46:04.651Z,4.40
2022-10-07T04:48:31.477Z,4.37
2022-10-07T04:51:02.861Z,4.60
2022-10-07T04:53:29.558Z,4.93
2022-10-07T04:55:56.421Z,4.97
2022-10-07T04:58:23.084Z,4.97
2022-10-07T05:00:52.430Z,4.60
2022-10-07T05:03:21.057Z,4.30
2022-10-07T05:05:50.374Z,4.47
2022-10-07T05:08:18.800Z,4.80
2022-10-07T05:10:45.775Z,4.67
2022-10-07T05:13:15.723Z,4.40
2022-10-07T05:15:49.790Z,4.17
2022-10-07T05:18:17.669Z,4.80
2022-10-07T05:20:46.437Z,5.00
2022-10-07T05:23:18.358Z,4.53
2022-10-07T05:25:44.973Z,4.90
2022-10-07T05:28:12.718Z,4.60
2022-10-07T05:30:39.790Z,4.97
2022-10-07T05:33:06.778Z,4.37
2022-10-07T05:35:34.131Z,4.67
2022-10-07T05:38:01.322Z,4.70
2022-10-07T05:40:28.592Z,4.93
2022-10-07T05:42:56.315Z,4.37
2022-10-07T05:45:22.912Z,5.27
2022-10-07T05:47:49.544Z,5.17
2022-10-07T05:50:16.303Z,5.17
2022-10-07T05:52:45.262Z,4.90
2022-10-07T05:55:12.032Z,4.80
2022-10-07T05:57:39.187Z,5.10
2022-10-07T06:00:07.085Z,5.33
2022-10-07T06:02:34.304Z,5.30
2022-10-07T06:05:01.073Z,4.97
2022-10-07T06:07:29.562Z,5.13
2022-10-07T06:10:15.153Z,4.80
2022-10-07T06:13:00.757Z,5.03
2022-10-07T06:15:29.553Z,5.67
2022-10-07T06:17:56.538Z,5.67
2022-10-07T06:20:23.061Z,5.40
2022-10-07T06:22:49.617Z,5.50
2022-10-07T06:25:16.580Z,6.40
2022-10-07T06:27:43.442Z,6.10
2022-10-07T06:30:10.673Z,5.47
2022-10-07T06:32:37.352Z,5.13
2022-10-07T06:35:04.200Z,5.40
2022-10-07T06:37:32.168Z,5.17
2022-10-07T06:39:59.805Z,6.70
2022-10-07T06:42:26.618Z,5.70
2022-10-07T06:44:56.209Z,5.13
2022-10-07T06:47:23.633Z,5.33
2022-10-07T06:49:50.166Z,6.07
2022-10-07T06:52:16.729Z,5.37
2022-10-07T06:54:43.415Z,5.30
2022-10-07T06:57:32.993Z,5.90
2022-10-07T06:59:56.613Z,5.40
2022-10-07T07:02:25.306Z,5.67
2022-10-07T07:04:55.318Z,5.30
2022-10-07T07:07:24.609Z,6.00
2022-10-07T07:09:51.940Z,5.70
2022-10-07T07:12:18.564Z,5.93
2022-10-07T07:14:45.399Z,5.43
2022-10-07T07:17:12.194Z,6.10
2022-10-07T07:19:38.856Z,6.10
2022-10-07T07:22:06.860Z,6.27
2022-10-07T07:24:33.415Z,5.77
2022-10-07T07:27:00.298Z,6.17
2022-10-07T07:29:26.920Z,5.70
2022-10-07T07:31:53.981Z,6.40
2022-10-07T07:34:20.711Z,6.70
2022-10-07T07:36:51.153Z,5.93
2022-10-07T07:39:18.684Z,6.03
2022-10-07T07:41:50.708Z,6.10
2022-10-07T07:44:18.453Z,6.23
2022-10-07T07:46:51.187Z,5.63
2022-10-07T07:49:18.876Z,5.57
2022-10-07T07:51:46.049Z,5.40
2022-10-07T07:54:13.142Z,5.93
2022-10-07T07:56:39.720Z,5.33
2022-10-07T07:59:08.090Z,5.73
2022-10-07T08:01:35.355Z,5.47
2022-10-07T08:04:05.985Z,6.60
2022-10-07T08:06:32.652Z,5.67
2022-10-07T08:08:59.561Z,5.00
2022-10-07T08:11:26.883Z,5.53
2022-10-07T08:13:55.277Z,5.37
2022-10-07T08:16:24.744Z,5.63
2022-10-07T08:18:52.249Z,5.10
2022-10-07T08:21:22.249Z,5.13
2022-10-07T08:23:57.328Z,5.37
2022-10-07T08:26:30.713Z,5.70
2022-10-07T08:28:57.950Z,5.00
2022-10-07T08:31:28.424Z,4.67
2022-10-07T08:33:58.851Z,4.60
2022-10-07T08:36:27.063Z,5.23
2022-10-07T08:38:53.865Z,5.10
2022-10-07T08:41:41.952Z,4.33
2022-10-07T08:44:17.039Z,4.70
2022-10-07T08:46:54.144Z,4.37
2022-10-07T08:49:29.966Z,4.43
2022-10-07T08:52:04.040Z,4.27
2022-10-07T08:54:30.787Z,4.03
2022-10-07T08:57:23.292Z,4.10
2022-10-07T08:59:58.030Z,3.87
2022-10-07T09:02:52.263Z,3.90
2022-10-07T09:05:24.294Z,4.00
2022-10-07T09:07:57.982Z,3.70
2022-10-07T09:10:31.940Z,4.23
2022-10-07T09:13:04.705Z,3.50
2022-10-07T09:15:46.330Z,3.37
2022-10-07T09:18:59.753Z,3.43
2022-10-07T09:21:41.483Z,3.83
2022-10-07T09:24:20.074Z,3.50
2022-10-07T09:26:47.055Z,3.47
2022-10-07T09:29:13.781Z,3.33
2022-10-07T09:31:40.343Z,3.80
2022-10-07T09:34:18.474Z,3.30
2022-10-07T09:37:10.772Z,3.33
2022-10-07T09:39:37.922Z,3.60
2022-10-07T09:42:07.393Z,3.70
2022-10-07T09:44:34.228Z,4.07
2022-10-07T09:47:16.739Z,3.00
2022-10-07T09:49:46.763Z,2.93
2022-10-07T09:52:26.096Z,2.67
2022-10-07T09:54:55.505Z,3.00
2022-10-07T09:57:31.639Z,3.10
2022-10-07T10:00:13.463Z,3.23
2022-10-07T10:02:43.060Z,2.83
2022-10-07T10:05:24.280Z,3.17
2022-10-07T10:07:57.640Z,3.13
2022-10-07T10:10:27.220Z,2.80
2022-10-07T10:12:56.204Z,2.80
2022-10-07T10:15:37.980Z,2.97
2022-10-07T10:18:35.230Z,2.72
2022-10-07T10:21:29.994Z,2.70
2022-10-07T10:24:06.152Z,2.70
2022-10-07T10:26:42.923Z,2.63
2022-10-07T10:29:40.809Z,3.00
2022-10-07T10:32:36.662Z,3.00
2022-10-07T10:35:08.113Z,2.45
2022-10-07T10:37:59.728Z,2.67
2022-10-07T10:40:44.087Z,2.20
2022-10-07T10:43:24.813Z,2.55
2022-10-07T10:46:19.846Z,3.25
2022-10-07T10:49:06.888Z,2.40
2022-10-07T10:51:58.550Z,2.88
2022-10-07T10:54:43.193Z,2.60
2022-10-07T10:57:34.386Z,2.38
2022-10-07T11:00:06.923Z,2.53
2022-10-07T11:02:39.426Z,2.30
2022-10-07T11:05:14.206Z,2.67
2022-10-07T11:07:50.271Z,2.75
2022-10-07T11:10:27.043Z,2.35
2022-10-07T11:13:12.476Z,2.65
2022-10-07T11:15:44.257Z,2.58
2022-10-07T11:18:21.746Z,2.30
2022-10-07T11:20:50.290Z,2.33
2022-10-07T11:23:23.113Z,2.35
2022-10-07T11:26:02.471Z,2.20
2022-10-07T11:28:32.636Z,2.17
2022-10-07T11:31:32.144Z,2.15
2022-10-07T11:34:17.432Z,2.13
2022-10-07T11:37:03.107Z,1.90
2022-10-07T11:39:30.442Z,2.45
2022-10-07T11:42:30.853Z,2.03
2022-10-07T11:45:06.729Z,2.15
2022-10-07T11:47:49.310Z,2.20
2022-10-07T11:50:22.671Z,2.20
2022-10-07T11:52:52.626Z,2.45
2022-10-07T11:55:51.518Z,2.22
2022-10-07T11:58:32.053Z,2.00
2022-10-07T12:01:26.286Z,2.50
2022-10-07T12:04:13.707Z,2.08
2022-10-07T12:06:40.251Z,1.98
2022-10-07T12:09:44.611Z,2.53
2022-10-07T12:12:14.238Z,2.00
2022-10-07T12:14:43.345Z,2.30
2022-10-07T12:17:23.319Z,2.50
2022-10-07T12:20:28.850Z,2.70
2022-10-07T12:23:25.893Z,2.22
2022-10-07T12:26:03.554Z,3.78
2022-10-07T12:28:47.212Z,2.30
2022-10-07T12:31:16.787Z,2.28
2022-10-07T12:33:46.421Z,2.13
2022-10-07T12:36:18.951Z,2.78
2022-10-07T12:39:07.977Z,2.80
2022-10-07T12:41:39.723Z,1.88
2022-10-07T12:44:34.488Z,2.17
2022-10-07T12:47:21.096Z,1.95
2022-10-07T12:49:59.140Z,2.42
2022-10-07T12:52:52.988Z,2.28
2022-10-07T12:55:30.534Z,2.30
2022-10-07T12:58:18.448Z,1.92
2022-10-07T13:01:23.268Z,2.28
2022-10-07T13:04:22.593Z,2.60
2022-10-07T13:07:19.352Z,1.83
2022-10-07T13:10:42.998Z,2.28
2022-10-07T13:13:20.239Z,2.50
2022-10-07T13:15:55.913Z,2.17
2022-10-07T13:18:35.438Z,2.17
2022-10-07T13:21:10.520Z,2.70
2022-10-07T13:23:37.555Z,2.53
2022-10-07T13:26:04.540Z,2.35
2022-10-07T13:28:38.181Z,1.80
2022-10-07T13:31:26.029Z,2.30
2022-10-07T13:33:54.481Z,2.28
2022-10-07T13:36:29.988Z,1.90
2022-10-07T13:39:22.812Z,2.15
2022-10-07T13:41:55.387Z,2.05
2022-10-07T13:44:25.549Z,1.90
2022-10-07T13:47:19.562Z,2.20
2022-10-07T13:49:49.388Z,2.00
2022-10-07T13:52:39.521Z,1.80
2022-10-07T13:55:29.345Z,2.05
2022-10-07T13:57:57.765Z,2.17
2022-10-07T14:00:25.253Z,2.10
2022-10-07T14:08:17.070Z,2.03
2022-10-07T14:11:00.436Z,2.08
2022-10-07T14:13:28.977Z,1.83
2022-10-07T14:15:57.667Z,1.95
2022-10-07T14:18:27.515Z,1.90
2022-10-07T14:20:57.212Z,2.30
2022-10-07T14:23:31.216Z,1.90
2022-10-07T14:26:04.308Z,1.80
2022-10-07T14:29:09.902Z,1.90
2022-10-07T14:31:55.583Z,2.05
2022-10-07T14:34:40.956Z,1.95
2022-10-07T14:37:13.626Z,1.65
2022-10-07T14:39:42.441Z,1.63
2022-10-07T14:42:15.413Z,2.25
2022-10-07T14:44:56.131Z,2.05
2022-10-07T14:47:25.032Z,1.98
2022-10-07T14:49:53.636Z,2.08
2022-10-07T14:52:43.515Z,2.08
2022-10-07T14:55:21.329Z,2.20
2022-10-07T14:57:50.606Z,2.08
2022-10-07T15:00:29.384Z,2.00
2022-10-07T15:02:58.160Z,1.90
2022-10-07T15:05:26.441Z,2.35
2022-10-07T15:07:53.072Z,2.05
2022-10-07T15:10:23.061Z,2.42
2022-10-07T15:12:50.076Z,2.20
2022-10-07T15:15:16.877Z,1.77
2022-10-07T15:17:44.301Z,2.03
2022-10-07T15:20:14.069Z,2.70
2022-10-07T15:22:41.325Z,1.70
2022-10-07T15:25:09.355Z,2.03
2022-10-07T15:27:37.668Z,2.08
2022-10-07T15:30:07.146Z,1.83
2022-10-07T15:32:34.021Z,2.10
2022-10-07T15:35:00.697Z,2.05
2022-10-07T15:37:27.511Z,1.88
2022-10-07T15:39:54.700Z,1.60
2022-10-07T15:42:24.120Z,2.10
2022-10-07T15:44:51.346Z,1.85
2022-10-07T15:47:18.612Z,1.88
2022-10-07T15:49:45.357Z,1.90
2022-10-07T15:52:12.100Z,1.95
2022-10-07T15:54:39.533Z,2.10
2022-10-07T15:57:08.184Z,2.10
2022-10-07T15:59:35.638Z,2.10
2022-10-07T16:02:03.705Z,1.90
2022-10-07T16:04:30.242Z,2.30
2022-10-07T16:06:57.055Z,1.92
2022-10-07T16:09:24.309Z,2.42
2022-10-07T16:11:51.420Z,1.98
2022-10-07T16:14:18.178Z,1.98
2022-10-07T16:16:45.403Z,2.10
2022-10-07T16:19:12.271Z,2.17
2022-10-07T16:21:41.262Z,2.13
2022-10-07T16:24:15.610Z,2.67
2022-10-07T16:26:43.799Z,3.00
2022-10-07T16:29:34.356Z,2.50
2022-10-07T16:32:01.238Z,3.00
2022-10-07T16:34:28.767Z,3.08
2022-10-07T16:36:56.273Z,2.50
2022-10-07T16:39:23.374Z,2.63
2022-10-07T16:41:52.156Z,2.65
2022-10-07T16:44:19.977Z,2.42
2022-10-07T16:46:47.342Z,2.40
2022-10-07T16:49:16.851Z,2.85
2022-10-07T16:51:44.512Z,2.70
2022-10-07T16:54:15.773Z,2.70
2022-10-07T16:56:47.981Z,2.67
2022-10-07T16:59:22.526Z,3.28
2022-10-07T17:01:51.489Z,3.50
2022-10-07T17:04:18.301Z,3.40
2022-10-07T17:09:32.939Z,4.33
2022-10-07T17:11:59.541Z,3.17
2022-10-07T17:14:26.478Z,3.50
2022-10-07T17:16:56.782Z,3.73
2022-10-07T17:19:25.669Z,4.13
2022-10-07T17:21:53.715Z,3.67
2022-10-07T17:24:21.993Z,4.20
2022-10-07T17:26:49.611Z,4.15
2022-10-07T17:29:18.357Z,4.50
2022-10-07T17:31:48.137Z,5.47
2022-10-07T17:34:19.790Z,5.37
2022-10-07T17:36:47.817Z,7.10
2022-10-07T17:39:14.941Z,6.30
2022-10-07T17:41:41.541Z,5.77
2022-10-07T17:44:11.420Z,5.93
2022-10-07T17:46:39.469Z,5.70
2022-10-07T17:49:08.210Z,5.50
2022-10-07T17:51:36.414Z,5.60
2022-10-07T17:54:04.957Z,6.07
2022-10-07T17:56:32.212Z,5.77
2022-10-07T17:58:58.929Z,6.53
2022-10-07T18:01:27.799Z,6.20
2022-10-07T18:03:56.992Z,6.30
2022-10-07T18:06:28.039Z,6.70
2022-10-07T18:08:55.037Z,6.77
2022-10-07T18:11:22.159Z,6.83
2022-10-07T18:14:07.303Z,6.47
2022-10-07T18:16:35.291Z,6.53
2022-10-07T18:19:02.020Z,7.40
2022-10-07T18:21:30.912Z,7.10
2022-10-07T18:23:58.009Z,6.53
2022-10-07T18:26:24.733Z,6.47
2022-10-07T18:28:51.458Z,6.40
2022-10-07T18:31:19.093Z,6.43
2022-10-07T18:33:46.250Z,6.13
2022-10-07T18:36:16.289Z,6.20
2022-10-07T18:38:44.133Z,6.43
2022-10-07T18:41:16.730Z,7.10
2022-10-07T18:43:45.279Z,7.03
2022-10-07T18:46:14.853Z,6.70
2022-10-07T18:48:43.294Z,6.57
2022-10-07T18:51:10.804Z,6.67
2022-10-07T18:53:39.530Z,6.93
2022-10-07T18:56:08.569Z,7.00
2022-10-07T18:58:42.692Z,6.83
2022-10-07T19:01:12.408Z,6.13
2022-10-07T19:03:39.803Z,6.67
2022-10-07T19:06:15.654Z,6.97
2022-10-07T19:08:43.003Z,6.37
2022-10-07T19:11:15.659Z,6.63
2022-10-07T19:13:50.832Z,6.50
2022-10-07T19:16:37.461Z,6.07
2022-10-07T19:19:07.513Z,6.50
2022-10-07T19:21:35.441Z,5.40
2022-10-07T19:24:03.179Z,6.40
2022-10-07T19:26:35.090Z,6.27
2022-10-07T19:29:03.271Z,6.03
2022-10-07T19:31:35.410Z,5.53
2022-10-07T19:34:05.732Z,5.50
2022-10-07T19:36:35.287Z,5.87
2022-10-07T19:39:03.550Z,5.90
2022-10-07T19:41:32.285Z,6.33
2022-10-07T19:43:59.603Z,5.93
2022-10-07T19:46:28.559Z,5.43
2022-10-07T19:48:58.064Z,5.53
2022-10-07T19:51:26.646Z,5.07
2022-10-07T19:53:53.545Z,5.67
2022-10-07T19:56:26.209Z,5.30
2022-10-07T19:58:58.676Z,5.57
2022-10-07T20:01:27.861Z,5.70
2022-10-07T20:04:09.994Z,6.00
2022-10-07T20:06:37.480Z,5.23
2022-10-07T20:09:06.577Z,5.87
2022-10-07T20:11:33.734Z,5.63
2022-10-07T20:14:01.519Z,6.03
2022-10-07T20:16:28.315Z,5.93
2022-10-07T20:19:01.513Z,6.50
2022-10-07T20:21:28.572Z,6.30
2022-10-07T20:26:38.489Z,6.00
2022-10-07T20:29:07.853Z,5.70
2022-10-07T20:31:38.417Z,5.50
2022-10-07T20:34:07.011Z,5.97
2022-10-07T20:36:36.642Z,5.80
2022-10-07T20:39:48.397Z,5.87
2022-10-07T20:42:21.492Z,6.47
2022-10-07T20:44:49.543Z,5.67
2022-10-07T20:47:16.558Z,5.90
2022-10-07T20:49:43.291Z,5.77
2022-10-07T20:52:13.902Z,6.00
2022-10-07T20:54:40.486Z,5.73
2022-10-07T20:57:07.120Z,6.47
2022-10-07T20:59:33.760Z,5.80
2022-10-07T21:02:03.858Z,6.20
2022-10-07T21:04:33.268Z,6.17
2022-10-07T21:07:00.011Z,6.00
2022-10-07T21:09:26.683Z,6.47
2022-10-07T21:11:54.227Z,6.20
2022-10-07T21:14:21.430Z,6.27
2022-10-07T21:16:48.862Z,6.30
2022-10-07T21:19:17.088Z,6.67
2022-10-07T21:21:43.846Z,5.77
2022-10-07T21:24:11.082Z,5.97
2022-10-07T21:26:38.060Z,6.20
2022-10-07T21:29:08.086Z,6.23
2022-10-07T21:31:35.672Z,6.10
2022-10-07T21:34:07.504Z,6.10
2022-10-07T21:36:40.931Z,6.30
2022-10-07T21:39:07.902Z,5.70
2022-10-07T21:41:35.846Z,6.27
2022-10-07T21:44:04.960Z,5.90
2022-10-07T21:46:36.525Z,6.20
2022-10-07T21:49:04.288Z,5.47
2022-10-07T21:51:32.199Z,5.83
2022-10-07T21:53:58.782Z,5.43
2022-10-07T21:56:27.961Z,5.43
2022-10-07T21:58:54.660Z,5.17
2022-10-07T22:01:23.006Z,5.67
2022-10-07T22:03:57.334Z,5.07
2022-10-07T22:06:45.193Z,5.37
2022-10-07T22:09:12.911Z,5.50
2022-10-07T22:11:40.217Z,5.60
2022-10-07T22:14:12.212Z,5.10
2022-10-07T22:16:39.136Z,5.03
2022-10-07T22:19:06.300Z,5.60
2022-10-07T22:21:35.654Z,5.17
2022-10-07T22:24:05.040Z,5.50
2022-10-07T22:26:35.267Z,5.33
2022-10-07T22:29:01.838Z,5.60
2022-10-07T22:31:30.115Z,5.77
2022-10-07T22:33:59.558Z,5.57
2022-10-07T22:36:28.158Z,5.77
2022-10-07T22:39:01.469Z,5.53
2022-10-07T22:41:29.096Z,5.20
2022-10-07T22:43:55.710Z,5.30
2022-10-07T22:46:28.023Z,5.33
2022-10-07T22:48:56.563Z,5.50
2022-10-07T22:51:24.395Z,4.97
2022-10-07T22:53:53.580Z,4.83
2022-10-07T22:56:21.250Z,5.10
2022-10-07T22:58:53.813Z,5.37
2022-10-07T23:01:21.572Z,4.73
2022-10-07T23:03:48.583Z,4.90
2022-10-07T23:06:17.728Z,5.10
2022-10-07T23:08:45.129Z,4.67
2022-10-07T23:11:16.342Z,5.03
2022-10-07T23:13:43.100Z,4.90
2022-10-07T23:16:15.455Z,5.17
2022-10-07T23:18:44.750Z,4.60
2022-10-07T23:21:16.534Z,4.90
2022-10-07T23:23:46.858Z,4.63
2022-10-07T23:26:22.992Z,4.50
2022-10-07T23:28:51.626Z,5.43
2022-10-07T23:31:20.635Z,5.13
2022-10-07T23:33:49.694Z,4.73
2022-10-07T23:36:17.482Z,4.40
2022-10-07T23:38:47.215Z,4.93
2022-10-07T23:41:21.959Z,4.60
2022-10-07T23:43:50.548Z,5.20
2022-10-07T23:46:18.519Z,5.03
2022-10-07T23:48:46.955Z,4.90
2022-10-07T23:51:15.675Z,4.90
2022-10-07T23:53:42.364Z,5.27
2022-10-07T23:56:09.285Z,4.83
2022-10-07T23:58:36.394Z,5.03
